Time;durP1;ratioP1;P1;durP2;ratioP2;P2;SDS_P1;SDS_P2;PMS_P1;PMS_P2;Temp;Humidity;BMP_temperature;BMP_pressure;BME280_temperature;BME280_humidity;BME280_pressure;Samples;Min_cycle;Max_cycle;Signal;HPM_P1;HPM_P2
2022/09/19 00:01:30;;;;;;;5.32;5.10;;;;;;;8.12;100.00;101108.41;6132482;23;20057;-73
2022/09/19 00:03:59;;;;;;;5.57;5.38;;;;;;;7.82;100.00;101064.16;6096125;23;20021;-73
2022/09/19 00:06:27;;;;;;;5.18;4.97;;;;;;;7.52;100.00;101014.66;6101934;23;20808;-73
2022/09/19 00:08:55;;;;;;;5.53;5.13;;;;;;;8.15;100.00;101114.38;6073327;23;20422;-73
2022/09/19 00:11:22;;;;;;;4.57;4.38;;;;;;;8.17;100.00;101119.53;6095922;23;20666;-74
2022/09/19 00:13:51;;;;;;;5.47;5.28;;;;;;;8.20;100.00;101114.22;6071557;23;20063;-73
2022/09/19 00:16:22;;;;;;;3.90;3.80;;;;;;;8.12;100.00;101092.72;6103135;23;20578;-74
2022/09/19 00:18:51;;;;;;;5.28;5.07;;;;;;;8.20;100.00;101109.00;6064620;23;20004;-74
2022/09/19 00:21:23;;;;;;;4.20;4.00;;;;;;;8.10;100.00;101097.16;6098574;23;20889;-74
2022/09/19 00:26:35;;;;;;;5.15;4.93;;;;;;;7.87;100.00;101077.88;6091416;23;20071;-74
2022/09/19 00:29:03;;;;;;;4.47;4.28;;;;;;;8.02;100.00;101102.66;6069828;23;20084;-73
2022/09/19 00:31:30;;;;;;;5.15;4.95;;;;;;;7.69;100.00;101068.09;6093892;23;20055;-72
2022/09/19 00:33:57;;;;;;;5.65;5.22;;;;;;;8.01;100.00;101106.16;6073624;23;20467;-73
2022/09/19 00:36:24;;;;;;;4.97;4.78;;;;;;;7.97;100.00;101110.63;6090608;23;20139;-72
2022/09/19 00:38:50;;;;;;;5.30;5.10;;;;;;;8.02;100.00;101101.78;6072043;23;20087;-73
2022/09/19 00:41:20;;;;;;;4.70;4.30;;;;;;;7.70;100.00;101057.59;6090962;23;20578;-73
2022/09/19 00:43:51;;;;;;;4.93;4.72;;;;;;;6.67;100.00;100880.94;6055861;23;20014;-74
2022/09/19 00:46:23;;;;;;;4.38;4.18;;;;;;;8.05;100.00;101099.06;6104680;23;20106;-74
2022/09/19 00:49:00;;;;;;;5.45;5.25;;;;;;;7.67;100.00;101043.78;6066930;23;20604;-74
2022/09/19 00:51:33;;;;;;;5.32;5.13;;;;;;;8.04;100.00;101105.19;6094672;23;20025;-73
2022/09/19 00:54:05;;;;;;;5.20;4.90;;;;;;;7.96;100.00;101098.50;6049972;23;20660;-74
2022/09/19 00:56:33;;;;;;;6.27;5.40;;;;;;;7.48;100.00;101009.63;6098584;23;20437;-72
2022/09/19 00:59:02;;;;;;;4.80;4.60;;;;;;;8.12;100.00;101104.03;6059286;23;20018;-73
2022/09/19 01:01:30;;;;;;;5.45;5.25;;;;;;;8.18;100.00;101108.19;6097110;23;20034;-74
2022/09/19 01:03:56;;;;;;;6.25;5.95;;;;;;;7.88;100.00;101050.03;6063060;23;20483;-73
2022/09/19 01:06:39;;;;;;;4.78;4.55;;;;;;;8.23;100.00;101105.41;6103502;23;20577;-75
2022/09/19 01:09:38;;;;;;;7.18;4.72;;;;;;;8.21;100.00;101110.69;6091941;23;20025;-73
2022/09/19 01:12:15;;;;;;;4.05;3.85;;;;;;;7.27;100.00;100957.19;6075290;23;20013;-73
2022/09/19 01:15:09;;;;;;;4.03;3.83;;;;;;;8.22;100.00;101103.69;6067806;23;20018;-75
2022/09/19 01:17:47;;;;;;;5.32;5.13;;;;;;;8.10;100.00;101087.56;6098511;23;20070;-73
2022/09/19 01:20:32;;;;;;;3.80;3.65;;;;;;;8.26;100.00;101121.84;6077700;23;20026;-73
2022/09/19 01:23:12;;;;;;;7.70;5.07;;;;;;;7.79;100.00;101053.78;6102231;23;20737;-73
2022/09/19 01:26:11;;;;;;;4.75;4.55;;;;;;;8.11;100.00;101118.00;6070821;23;20025;-73
2022/09/19 01:28:54;;;;;;;4.82;4.63;;;;;;;8.05;100.00;101112.97;6011022;23;20316;-74
2022/09/19 01:31:28;;;;;;;4.50;4.30;;;;;;;7.43;100.00;101014.13;6062647;23;20081;-72
2022/09/19 01:34:05;;;;;;;5.28;5.07;;;;;;;8.00;100.00;101138.44;6106706;23;20557;-74
2022/09/19 01:36:43;;;;;;;5.05;4.85;;;;;;;7.83;100.00;101118.09;6084054;23;20087;-71
2022/09/19 01:39:11;;;;;;;4.50;4.30;;;;;;;7.42;100.00;101047.22;6042991;23;20018;-72
2022/09/19 01:41:38;;;;;;;4.80;4.60;;;;;;;7.51;100.00;101077.38;6097858;23;20017;-72
2022/09/19 01:44:14;;;;;;;3.80;3.60;;;;;;;7.83;100.00;101135.53;6070815;23;20099;-72
2022/09/19 01:46:56;;;;;;;4.10;3.90;;;;;;;7.48;100.00;101090.56;6094139;23;20002;-73
2022/09/19 01:49:49;;;;;;;5.10;4.85;;;;;;;7.57;100.00;101113.75;6073793;23;20092;-72
2022/09/19 01:52:22;;;;;;;;;;;;;;;7.70;100.00;101137.72;6070096;23;20609;-72
2022/09/19 01:55:06;;;;;;;4.80;4.60;;;;;;;7.64;100.00;101145.72;6098583;23;20004;-73
2022/09/19 01:57:45;;;;;;;5.68;5.35;;;;;;;7.56;100.00;101139.03;6065320;23;20088;-71
2022/09/19 02:00:14;;;;;;;4.13;3.92;;;;;;;7.47;100.00;101138.47;6101326;23;20014;-73
2022/09/19 02:02:46;;;;;;;3.80;3.70;;;;;;;7.52;100.00;101149.63;6072681;23;20010;-76
2022/09/19 02:05:23;;;;;;;8.95;4.80;;;;;;;7.48;100.00;101167.16;6073498;23;20093;-74
2022/09/19 02:08:36;;;;;;;5.32;5.13;;;;;;;7.52;100.00;101145.25;6119973;23;20012;-74
2022/09/19 02:11:11;;;;;;;4.15;3.95;;;;;;;7.21;100.00;101110.56;6094302;23;20023;-72
2022/09/19 02:13:45;;;;;;;4.45;4.25;;;;;;;7.01;100.00;101072.91;6131947;23;20032;-73
2022/09/19 02:16:18;;;;;;;4.15;3.95;;;;;;;7.32;100.00;101129.38;6090870;23;20082;-73
2022/09/19 02:18:57;;;;;;;4.93;4.72;;;;;;;7.66;100.00;101157.00;6127032;23;20005;-73
2022/09/19 02:21:37;;;;;;;4.93;4.72;;;;;;;7.39;100.00;101108.22;6099897;23;20082;-73
2022/09/19 02:24:08;;;;;;;4.28;4.03;;;;;;;7.74;100.00;101162.84;6127763;23;20013;-73
2022/09/19 02:26:39;;;;;;;5.20;4.95;;;;;;;7.46;100.00;101115.88;6107551;23;20013;-74
2022/09/19 02:29:08;;;;;;;4.35;4.15;;;;;;;7.77;100.00;101149.66;6109524;23;20086;-73
2022/09/19 02:31:35;;;;;;;5.55;5.35;;;;;;;7.72;100.00;101151.59;6100724;23;20021;-73
2022/09/19 02:34:05;;;;;;;4.47;4.28;;;;;;;7.44;100.00;101110.69;6121215;23;20017;-73
2022/09/19 02:36:50;;;;;;;5.28;5.07;;;;;;;7.59;100.00;101146.75;6091917;23;20106;-73
2022/09/19 02:39:17;;;;;;;5.32;5.13;;;;;;;7.64;100.00;101174.47;6127311;23;20074;-76
2022/09/19 02:41:57;;;;;;;4.18;4.00;;;;;;;7.32;100.00;101125.00;6095334;23;20074;-73
2022/09/19 02:44:36;;;;;;;4.97;4.78;;;;;;;7.63;100.00;101157.09;6094956;23;20046;-73
2022/09/19 02:47:24;;;;;;;4.10;3.90;;;;;;;7.58;100.00;101163.34;6095913;23;20763;-73
2022/09/19 02:49:57;;;;;;;5.35;5.15;;;;;;;7.15;100.00;101107.25;6096433;23;20090;-74
2022/09/19 02:52:29;;;;;;;4.50;4.20;;;;;;;7.36;100.00;101157.09;6099208;23;20112;-74
2022/09/19 02:55:02;;;;;;;5.70;5.43;;;;;;;7.25;100.00;101130.47;6123380;23;20029;-74
2022/09/19 02:57:31;;;;;;;5.57;5.28;;;;;;;7.45;100.00;101167.22;6086091;23;20339;-73
2022/09/19 03:00:04;;;;;;;4.20;4.00;;;;;;;7.43;100.00;101163.81;6132651;23;20025;-73
2022/09/19 03:02:34;;;;;;;6.63;6.05;;;;;;;7.33;100.00;101146.72;6089252;23;20014;-73
2022/09/19 03:05:07;;;;;;;4.63;4.43;;;;;;;7.22;100.00;101135.75;6124476;23;20403;-73
2022/09/19 03:07:39;;;;;;;5.72;5.43;;;;;;;7.42;100.00;101169.94;6100400;23;20383;-72
2022/09/19 03:10:12;;;;;;;4.20;4.00;;;;;;;7.01;100.00;101106.81;6129623;23;20013;-73
2022/09/19 03:12:50;;;;;;;5.03;4.82;;;;;;;7.42;100.00;101169.06;6125304;23;20078;-74
2022/09/19 03:15:21;;;;;;;3.80;3.70;;;;;;;6.95;100.00;101091.34;6130091;23;20074;-73
2022/09/19 03:17:51;;;;;;;5.22;5.03;;;;;;;7.02;100.00;101108.53;6131535;23;20021;-72
2022/09/19 03:20:18;;;;;;;3.70;3.60;;;;;;;7.07;100.00;101101.41;6131749;23;20033;-74
2022/09/19 03:22:45;;;;;;;4.43;4.22;;;;;;;7.31;100.00;101153.75;6124389;23;20028;-73
2022/09/19 03:25:14;;;;;;;4.07;3.88;;;;;;;7.46;100.00;101178.56;6131323;23;20079;-73
2022/09/19 03:27:41;;;;;;;4.10;3.90;;;;;;;7.49;100.00;101186.28;6119426;23;20016;-73
2022/09/19 03:30:10;;;;;;;4.00;3.80;;;;;;;7.47;100.00;101183.69;6138608;23;20010;-74
2022/09/19 03:32:41;;;;;;;3.90;3.70;;;;;;;7.47;100.00;101183.69;6084103;23;20585;-74
2022/09/19 03:35:10;;;;;;;4.20;4.00;;;;;;;7.54;100.00;101177.41;6110085;23;20025;-74
2022/09/19 03:37:36;;;;;;;5.35;5.15;;;;;;;7.38;100.00;101153.53;6074745;23;20013;-73
2022/09/19 03:40:03;;;;;;;4.65;4.28;;;;;;;7.63;100.00;101184.06;6118886;23;20021;-74
2022/09/19 03:42:35;;;;;;;5.18;4.97;;;;;;;7.51;100.00;101150.50;6112896;23;20484;-74
2022/09/19 03:45:05;;;;;;;4.55;4.35;;;;;;;7.75;100.00;101177.59;6077224;23;20075;-74
2022/09/19 03:47:32;;;;;;;5.45;5.25;;;;;;;6.96;100.00;101044.34;6119448;23;20074;-74
2022/09/19 03:49:58;;;;;;;5.05;4.85;;;;;;;7.81;100.00;101208.75;6104408;23;20616;-73
2022/09/19 03:52:27;;;;;;;4.40;4.05;;;;;;;7.39;100.00;101113.44;6089859;23;20058;-72
2022/09/19 03:54:54;;;;;;;5.30;5.10;;;;;;;7.84;100.00;101179.03;6079853;23;20108;-73
2022/09/19 03:57:20;;;;;;;4.35;4.18;;;;;;;7.85;100.00;101191.22;6103444;23;20019;-73
2022/09/19 03:59:47;;;;;;;5.03;4.82;;;;;;;6.88;100.00;101056.78;6131251;23;20094;-73
2022/09/19 04:02:13;;;;;;;4.32;4.13;;;;;;;7.65;100.00;101155.28;6130500;23;20071;-74
2022/09/19 04:04:40;;;;;;;4.00;3.80;;;;;;;7.76;100.00;101177.56;6107321;23;20017;-73
2022/09/19 04:07:06;;;;;;;3.65;3.53;;;;;;;6.89;100.00;101044.59;6095033;23;20012;-72
2022/09/19 04:09:34;;;;;;;5.25;5.05;;;;;;;7.81;100.00;101195.69;6118428;23;20548;-72
2022/09/19 04:12:03;;;;;;;5.22;5.03;;;;;;;7.84;100.00;101205.19;6081059;23;20026;-72
2022/09/19 04:14:32;;;;;;;5.60;5.35;;;;;;;7.81;100.00;101211.38;6102981;23;20025;-73
2022/09/19 04:16:58;;;;;;;5.40;5.20;;;;;;;7.81;100.00;101213.13;6099898;23;21624;-74
2022/09/19 04:19:45;;;;;;;6.03;4.30;;;;;;;7.63;100.00;101184.06;6125140;23;20092;-73
2022/09/19 04:22:11;;;;;;;4.30;4.10;;;;;;;7.73;100.00;101209.00;6118539;23;20078;-73
2022/09/19 04:24:42;;;;;;;4.80;4.60;;;;;;;7.71;100.00;101217.78;6109948;23;20018;-74
2022/09/19 04:27:11;;;;;;;3.72;3.63;;;;;;;7.69;100.00;101215.22;6124095;23;20013;-72
2022/09/19 04:29:38;;;;;;;5.03;4.82;;;;;;;7.13;100.00;101122.09;6090485;23;20152;-74
2022/09/19 04:32:04;;;;;;;4.20;4.00;;;;;;;7.53;100.00;101193.94;6118890;23;21023;-72
2022/09/19 04:34:30;;;;;;;5.50;5.28;;;;;;;7.01;100.00;101100.75;6110475;23;20029;-73
2022/09/19 04:36:57;;;;;;;5.30;5.10;;;;;;;7.04;100.00;101116.34;6112857;23;20530;-73
2022/09/19 04:39:24;;;;;;;5.10;4.90;;;;;;;6.68;100.00;101060.00;6118686;23;20115;-73
2022/09/19 04:41:53;;;;;;;5.35;5.15;;;;;;;7.29;100.00;101152.94;6120696;23;20018;-73
2022/09/19 04:44:27;;;;;;;4.07;3.88;;;;;;;7.75;100.00;101229.84;6106450;23;20074;-73
2022/09/19 04:46:54;;;;;;;5.03;4.82;;;;;;;7.75;100.00;101224.63;6096217;23;20021;-73
2022/09/19 04:49:20;;;;;;;4.13;3.97;;;;;;;7.62;100.00;101212.84;6120729;23;20084;-74
2022/09/19 04:51:47;;;;;;;4.75;4.55;;;;;;;7.63;100.00;101215.41;6097792;23;20869;-72
2022/09/19 04:54:16;;;;;;;3.80;3.70;;;;;;;7.35;100.00;101166.66;6104697;23;20017;-73
2022/09/19 04:56:46;;;;;;;8.55;4.07;;;;;;;7.64;100.00;101216.25;6092475;23;20036;-73
2022/09/19 04:59:12;;;;;;;4.05;3.85;;;;;;;7.30;100.00;101167.72;6121419;23;20017;-72
2022/09/19 05:01:39;;;;;;;4.03;3.83;;;;;;;7.21;100.00;101168.84;6099038;23;20388;-73
2022/09/19 05:04:05;;;;;;;4.20;4.00;;;;;;;7.55;100.00;101239.16;6078378;23;20009;-73
2022/09/19 05:06:32;;;;;;;5.00;4.80;;;;;;;7.36;100.00;101214.53;6108228;23;20045;-73
2022/09/19 05:08:58;;;;;;;5.93;5.53;;;;;;;7.46;100.00;101241.22;6111845;23;20024;-74
2022/09/19 05:11:25;;;;;;;5.78;5.50;;;;;;;7.48;100.00;101237.66;6098235;23;20022;-72
2022/09/19 05:13:52;;;;;;;5.63;5.32;;;;;;;7.48;100.00;101240.28;6121305;23;20044;-73
2022/09/19 05:16:19;;;;;;;4.63;4.35;;;;;;;6.43;100.00;101075.50;6113669;23;20016;-74
2022/09/19 05:18:46;;;;;;;4.90;4.70;;;;;;;6.80;100.00;101139.66;6105951;23;20068;-72
2022/09/19 05:21:15;;;;;;;4.15;3.95;;;;;;;7.44;100.00;101250.84;6097383;23;20014;-74
2022/09/19 05:23:42;;;;;;;4.45;4.25;;;;;;;7.22;100.00;101219.28;6130059;23;20626;-74
2022/09/19 05:26:16;;;;;;;3.75;3.65;;;;;;;7.30;100.00;101228.63;6075317;23;20042;-75
2022/09/19 05:28:46;;;;;;;4.35;4.15;;;;;;;7.43;100.00;101268.25;6115066;23;20637;-75
2022/09/19 05:31:16;;;;;;;4.05;3.85;;;;;;;6.77;100.00;101153.59;6102929;23;20514;-74
2022/09/19 05:33:43;;;;;;;3.83;3.67;;;;;;;7.47;100.00;101255.97;6096047;23;20020;-75
2022/09/19 05:36:09;;;;;;;4.00;3.80;;;;;;;7.38;100.00;101233.63;6114964;23;20013;-75
2022/09/19 05:38:36;;;;;;;5.35;5.15;;;;;;;7.38;100.00;101233.63;6089927;23;20030;-74
2022/09/19 05:41:04;;;;;;;3.78;3.67;;;;;;;7.29;100.00;101221.69;6108292;23;20025;-73
2022/09/19 05:43:31;;;;;;;5.28;5.07;;;;;;;7.66;100.00;101279.75;6109937;23;20024;-76
2022/09/19 05:45:57;;;;;;;4.00;3.80;;;;;;;7.30;100.00;101201.66;6112803;23;20083;-74
2022/09/19 05:48:24;;;;;;;5.22;4.80;;;;;;;7.77;100.00;101267.22;6106843;23;20024;-73
2022/09/19 05:50:52;;;;;;;5.47;5.25;;;;;;;7.85;100.00;101275.69;6125102;23;20005;-73
2022/09/19 05:56:06;;;;;;;11.32;4.10;;;;;;;8.04;100.00;101283.81;6118608;23;20014;-75
2022/09/19 05:58:36;;;;;;;5.38;5.18;;;;;;;8.10;100.00;101282.75;6119626;23;20567;-74
2022/09/19 06:01:07;;;;;;;4.20;4.00;;;;;;;8.15;100.00;101278.22;6127670;23;20018;-75
2022/09/19 06:03:34;;;;;;;5.13;4.93;;;;;;;7.43;100.00;101169.03;6095677;23;20021;-74
2022/09/19 06:06:09;;;;;;;4.70;4.50;;;;;;;7.69;100.00;101209.16;6109484;23;20095;-73
2022/09/19 06:08:36;;;;;;;5.15;4.95;;;;;;;7.77;100.00;101210.59;6080635;23;20611;-75
2022/09/19 06:11:02;;;;;;;4.10;3.90;;;;;;;8.33;100.00;101295.06;6068942;23;20052;-74
2022/09/19 06:14:13;;;;;;;5.60;5.38;;;;;;;7.99;100.00;101222.97;6091297;23;20021;-74
2022/09/19 06:16:17;;;;;;;4.07;3.88;;;;;;;8.37;100.00;101260.91;6094320;23;20765;-76
2022/09/19 06:18:44;;;;;;;4.70;4.50;;;;;;;8.58;100.00;101276.81;6069849;23;20018;-75
2022/09/19 06:21:12;;;;;;;4.20;4.00;;;;;;;8.83;100.00;101300.34;6105869;23;20090;-75
2022/09/19 06:23:40;;;;;;;4.20;4.00;;;;;;;8.61;100.00;101244.47;6084855;23;20086;-73
2022/09/19 06:26:07;;;;;;;4.50;4.30;;;;;;;8.56;100.00;101226.31;6092620;23;20793;-76
2022/09/19 06:28:34;;;;;;;5.28;5.07;;;;;;;8.63;100.00;101251.34;6092160;23;20090;-75
2022/09/19 06:31:03;;;;;;;4.93;4.72;;;;;;;8.61;100.00;101219.16;6094955;23;20017;-76
2022/09/19 06:33:31;;;;;;;5.43;5.22;;;;;;;8.55;100.00;101201.91;6074295;23;20076;-76
2022/09/19 06:36:01;;;;;;;5.95;5.65;;;;;;;9.34;100.00;101320.34;6097912;23;20541;-76
2022/09/19 06:38:30;;;;;;;5.55;5.35;;;;;;;9.16;100.00;101279.97;6073484;23;20026;-76
2022/09/19 06:40:57;;;;;;;6.45;6.05;;;;;;;9.39;100.00;101307.91;6065207;23;20039;-77
2022/09/19 06:43:23;;;;;;;5.38;5.18;;;;;;;9.30;100.00;101289.06;6076659;23;20037;-76
2022/09/19 06:45:52;;;;;;;5.85;5.55;;;;;;;9.44;100.00;101313.00;6059619;23;20025;-75
2022/09/19 06:48:18;;;;;;;4.45;4.25;;;;;;;9.24;100.00;101305.00;6093893;23;20021;-77
2022/09/19 06:50:46;;;;;;;5.63;5.35;;;;;;;9.68;100.00;101337.44;6071696;23;20379;-74
2022/09/19 06:53:13;;;;;;;4.65;4.45;;;;;;;9.62;100.00;101337.63;6065239;23;20060;-76
2022/09/19 06:55:40;;;;;;;11.07;4.78;;;;;;;9.69;100.00;101344.34;6074714;23;20667;-77
2022/09/19 06:58:13;;;;;;;4.95;4.60;;;;;;;9.59;100.00;101316.78;6055905;23;20015;-76
2022/09/19 07:00:40;;;;;;;8.65;4.97;;;;;;;9.81;100.00;101301.09;6098108;23;20697;-76
2022/09/19 07:03:15;;;;;;;4.20;4.00;;;;;;;10.30;100.00;101335.88;6067302;23;20100;-75
2022/09/19 07:05:44;;;;;;;4.30;4.10;;;;;;;10.62;100.00;101357.28;6098231;23;20033;-77
2022/09/19 07:08:13;;;;;;;5.55;5.18;;;;;;;10.45;100.00;101334.38;6109471;23;20566;-77
2022/09/19 07:10:43;;;;;;;5.40;5.03;;;;;;;10.58;100.00;101353.97;6130130;23;20021;-76
2022/09/19 07:13:13;;;;;;;5.47;5.05;;;;;;;10.14;100.00;101288.41;6102290;23;20470;-76
2022/09/19 07:15:40;;;;;;;5.03;4.82;;;;;;;10.65;100.00;101357.19;6125137;23;20100;-76
2022/09/19 07:18:12;;;;;;;4.38;4.18;;;;;;;10.41;100.00;101330.19;6065338;23;20420;-76
2022/09/19 07:20:40;;;;;;;5.07;4.88;;;;;;;10.75;100.00;101371.63;6121501;23;20089;-75
2022/09/19 07:23:17;;;;;;;5.00;4.50;;;;;;;10.87;100.00;101378.13;6113073;23;20013;-75
2022/09/19 07:25:44;;;;;;;5.15;4.95;;;;;;;10.96;100.00;101374.25;6104577;23;20016;-76
2022/09/19 07:28:14;;;;;;;5.25;4.85;;;;;;;10.92;100.00;101349.88;6107319;23;20033;-73
2022/09/19 07:30:43;;;;;;;5.85;4.82;;;;;;;11.07;100.00;101353.63;6117263;23;20035;-76
2022/09/19 07:33:11;;;;;;;5.18;4.97;;;;;;;11.08;100.00;101344.81;6095719;23;20035;-74
2022/09/19 07:35:41;;;;;;;5.15;4.85;;;;;;;11.13;100.00;101339.38;6129786;23;20312;-75
2022/09/19 07:38:11;;;;;;;4.78;4.57;;;;;;;11.40;100.00;101378.47;6094015;23;20605;-75
2022/09/19 07:40:37;;;;;;;5.18;4.97;;;;;;;10.41;100.00;101269.84;6115803;23;20621;-73
2022/09/19 07:43:05;;;;;;;7.07;5.00;;;;;;;11.20;100.00;101345.22;6100522;23;20017;-74
2022/09/19 07:45:33;;;;;;;6.75;6.10;;;;;;;10.87;100.00;101303.75;6123698;23;20383;-76
2022/09/19 07:48:02;;;;;;;8.13;5.53;;;;;;;10.89;100.00;101294.88;6118981;23;20899;-76
2022/09/19 07:50:29;;;;;;;6.43;6.05;;;;;;;11.06;100.00;101325.66;6090335;23;20017;-77
2022/09/19 07:53:01;;;;;;;6.65;6.22;;;;;;;11.59;100.00;101403.03;6087771;23;20016;-74
2022/09/19 07:55:28;;;;;;;6.83;6.40;;;;;;;11.17;100.00;101338.34;6135519;23;20013;-76
2022/09/19 07:57:57;;;;;;;6.15;5.85;;;;;;;11.57;100.00;101410.97;6110586;23;20623;-74
2022/09/19 08:00:26;;;;;;;7.18;5.65;;;;;;;10.92;100.00;101320.16;6104752;23;20025;-74
2022/09/19 08:02:54;;;;;;;9.52;6.45;;;;;;;11.31;100.00;101398.16;6112455;23;20078;-76
2022/09/19 08:05:21;;;;;;;5.03;4.82;;;;;;;11.44;100.00;101425.59;6089975;23;20018;-76
2022/09/19 08:07:47;;;;;;;7.70;7.30;;;;;;;11.04;100.00;101371.31;6115929;23;21147;-75
2022/09/19 08:10:15;;;;;;;5.85;5.00;;;;;;;11.07;100.00;101358.88;6118575;23;20021;-76
2022/09/19 08:12:45;;;;;;;4.75;4.55;;;;;;;11.49;100.00;101433.28;6095591;23;20269;-76
2022/09/19 08:15:18;;;;;;;5.65;5.22;;;;;;;11.63;100.00;101430.03;6111451;23;20009;-76
2022/09/19 08:17:58;;;;;;;6.03;5.53;;;;;;;11.77;100.00;101433.75;6087814;23;20074;-76
2022/09/19 08:20:26;;;;;;;4.80;4.50;;;;;;;11.74;100.00;101415.47;6111418;23;20026;-75
2022/09/19 08:22:58;;;;;;;5.93;5.43;;;;;;;11.93;100.00;101418.16;6074364;23;20083;-75
2022/09/19 08:25:25;;;;;;;4.80;4.60;;;;;;;12.15;100.00;101441.69;6115061;23;20032;-75
2022/09/19 08:27:53;;;;;;;6.25;5.95;;;;;;;12.34;100.00;101423.22;6122549;23;20046;-74
2022/09/19 08:30:19;;;;;;;9.70;5.07;;;;;;;12.56;100.00;101444.09;6122892;23;20067;-76
2022/09/19 08:32:47;;;;;;;5.88;5.57;;;;;;;12.67;100.00;101435.69;6126968;23;20144;-74
2022/09/19 08:35:15;;;;;;;5.07;4.80;;;;;;;12.42;100.00;101398.31;6114938;23;20017;-75
2022/09/19 08:37:42;;;;;;;7.93;5.28;;;;;;;11.27;100.00;101208.25;6104033;23;20014;-76
2022/09/19 08:40:21;;;;;;;5.03;4.72;;;;;;;12.66;100.00;101412.91;6098172;23;20092;-75
2022/09/19 08:43:21;;;;;;;6.15;5.75;;;;;;;13.09;100.00;101452.94;6090190;23;20009;-76
2022/09/19 08:46:08;;;;;;;7.18;6.47;;;;;;;12.78;100.00;101378.06;6112942;23;20793;-75
2022/09/19 08:48:50;;;;;;;7.28;5.88;;;;;;;13.33;100.00;101456.13;6103317;23;20051;-78
2022/09/19 08:51:44;;;;;;;5.50;5.07;;;;;;;13.42;100.00;101457.41;6100591;23;20578;-76
2022/09/19 08:54:19;;;;;;;6.22;5.47;;;;;;;13.00;100.00;101389.28;6114448;23;20094;-76
2022/09/19 08:56:46;;;;;;;7.82;5.40;;;;;;;13.62;100.00;101461.66;6111428;23;20021;-76
2022/09/19 08:59:24;;;;;;;5.10;4.80;;;;;;;13.23;100.00;101396.00;6114403;23;20029;-74
2022/09/19 09:01:59;;;;;;;7.68;7.03;;;;;;;13.05;100.00;101377.59;6087618;23;20074;-77
2022/09/19 09:04:45;;;;;;;5.85;5.45;;;;;;;13.67;100.00;101466.69;6124552;23;20104;-75
2022/09/19 09:07:48;;;;;;;5.60;4.88;;;;;;;13.80;100.00;101465.09;6124314;23;20066;-76
2022/09/19 09:10:18;;;;;;;;;;;;;;;13.92;100.00;101472.34;6092640;23;20047;-76
2022/09/19 09:13:17;;;;;;;5.43;5.00;;;;;;;13.84;100.00;101429.69;6116222;23;20232;-75
2022/09/19 09:16:07;;;;;;;5.90;4.95;;;;;;;14.28;100.00;101468.63;6083315;23;20681;-77
2022/09/19 09:18:48;;;;;;;6.72;6.32;;;;;;;14.37;100.00;101475.19;6056348;23;20441;-75
2022/09/19 09:21:40;;;;;;;6.85;5.60;;;;;;;14.34;100.00;101470.94;6093407;23;20320;-76
2022/09/19 09:24:28;;;;;;;6.07;4.95;;;;;;;14.44;100.00;101467.78;6117457;23;20445;-73
2022/09/19 09:27:04;;;;;;;6.25;5.85;;;;;;;14.43;100.00;101480.13;6092279;23;20031;-75
2022/09/19 09:29:37;;;;;;;6.88;6.47;;;;;;;14.52;100.00;101470.84;6118058;23;20025;-74
2022/09/19 09:32:17;;;;;;;9.95;4.95;;;;;;;14.09;100.00;101404.59;6095694;23;20731;-76
2022/09/19 09:35:26;;;;;;;6.38;5.38;;;;;;;14.88;100.00;101485.59;6127615;23;20024;-78
2022/09/19 09:38:21;;;;;;;8.98;6.18;;;;;;;14.03;100.00;101360.94;6074625;23;20025;-75
2022/09/19 09:44:01;;;;;;;6.00;5.53;;;;;;;15.08;100.00;101482.63;6089239;23;20017;-75
2022/09/19 09:46:48;;;;;;;6.65;6.25;;;;;;;15.08;100.00;101477.34;6085929;23;20444;-76
2022/09/19 09:49:15;;;;;;;5.80;4.72;;;;;;;14.88;100.00;101427.44;6097770;23;20052;-74
2022/09/19 09:52:06;;;;;;;5.97;5.68;;;;;;;14.70;100.00;101385.28;6102223;23;20017;-78
2022/09/19 09:57:33;;;;;;;17.20;5.72;;;;;;;15.66;100.00;101473.00;6085558;23;20026;-77
2022/09/19 10:03:35;;;;;;;6.32;5.80;;;;;;;16.13;100.00;101478.94;6088698;23;20043;-77
2022/09/19 10:06:13;;;;;;;5.63;5.32;;;;;;;16.12;100.00;101474.63;6111287;23;20532;-75
2022/09/19 10:09:03;;;;;;;6.25;5.85;;;;;;;15.93;100.00;101474.91;6084775;23;20010;-74
2022/09/19 10:11:39;;;;;;;6.35;6.05;;;;;;;15.81;100.00;101479.16;6061818;23;20485;-73
2022/09/19 10:14:30;;;;;;;9.50;7.03;;;;;;;16.02;100.00;101469.03;6079469;23;20010;-74
2022/09/19 10:17:01;;;;;;;10.07;6.57;;;;;;;15.73;100.00;101394.94;6120673;23;20031;-76
2022/09/19 10:19:48;;;;;;;7.35;5.25;;;;;;;16.21;100.00;101458.13;6093056;23;20040;-75
2022/09/19 10:22:16;;;;;;;5.97;5.57;;;;;;;15.79;100.00;101430.75;6121432;23;20728;-74
2022/09/19 10:24:47;;;;;;;5.88;5.35;;;;;;;15.25;100.00;101377.63;6080729;23;20018;-76
2022/09/19 10:27:24;;;;;;;6.20;5.10;;;;;;;15.40;100.00;101464.00;6122941;23;20066;-75
2022/09/19 10:30:15;;;;;;;6.30;6.00;;;;;;;15.43;100.00;101473.53;6081353;23;20025;-76
2022/09/19 10:32:43;;;;;;;6.63;6.03;;;;;;;15.32;100.00;101451.22;6119948;23;20016;-77
2022/09/19 10:35:26;;;;;;;5.97;5.10;;;;;;;15.59;100.00;101470.81;6100887;23;20936;-75
2022/09/19 10:38:16;;;;;;;7.78;7.05;;;;;;;15.73;100.00;101463.75;6119345;23;20040;-75
2022/09/19 10:41:00;;;;;;;7.50;5.63;;;;;;;15.98;100.00;101461.41;6087743;23;20435;-77
2022/09/19 10:43:32;;;;;;;7.55;7.05;;;;;;;16.37;100.00;101465.09;6131779;23;20020;-75
2022/09/19 10:46:05;;;;;;;;;;;;;;;16.52;100.00;101469.41;6093450;23;20037;-75
2022/09/19 10:48:34;;;;;;;6.18;5.68;;;;;;;16.83;100.00;101465.63;6126649;23;19905;-75
2022/09/19 10:51:11;;;;;;;5.15;4.95;;;;;;;16.83;100.00;101451.53;6069291;23;20041;-75
2022/09/19 10:53:41;;;;;;;6.90;6.32;;;;;;;16.06;99.77;101388.47;6130222;23;20025;-75
2022/09/19 10:56:34;;;;;;;5.45;5.15;;;;;;;15.42;100.00;101382.75;6093292;23;20045;-76
2022/09/19 10:59:18;;;;;;;10.68;5.30;;;;;;;15.40;100.00;101464.00;6104116;23;20453;-75
2022/09/19 11:02:24;;;;;;;5.97;5.68;;;;;;;15.14;100.00;101473.50;6079104;23;20088;-74
2022/09/19 11:05:03;;;;;;;7.40;6.88;;;;;;;15.31;100.00;101475.97;5977118;23;20015;-75
2022/09/19 11:07:33;;;;;;;6.22;5.93;;;;;;;15.50;100.00;101488.09;5944753;24;20031;-75
2022/09/19 11:10:03;;;;;;;6.22;5.75;;;;;;;15.04;100.00;101430.88;6028183;23;20108;-75
2022/09/19 11:12:31;;;;;;;6.03;5.72;;;;;;;14.92;100.00;101452.75;6068838;23;20331;-76
2022/09/19 11:14:59;;;;;;;7.35;6.68;;;;;;;14.85;100.00;101498.97;6076304;23;20018;-74
2022/09/19 11:17:55;;;;;;;6.90;6.22;;;;;;;14.59;100.00;101490.72;6058568;23;20014;-75
2022/09/19 11:20:45;;;;;;;6.70;6.40;;;;;;;14.39;100.00;101486.50;6085122;23;20017;-74
2022/09/19 11:23:20;;;;;;;5.28;4.97;;;;;;;14.30;100.00;101453.56;6067252;23;20021;-74
2022/09/19 11:26:26;;;;;;;5.82;5.25;;;;;;;15.47;100.00;101488.28;6094444;23;20001;-74
2022/09/19 11:29:21;;;;;;;5.30;5.10;;;;;;;15.56;100.00;101429.53;6061807;23;20030;-75
2022/09/19 11:32:07;;;;;;;6.05;5.55;;;;;;;15.83;100.00;101477.28;6090633;23;20017;-75
2022/09/19 11:35:23;;;;;;;5.20;4.93;;;;;;;15.56;100.00;101477.16;6070039;23;20680;-75
2022/09/19 11:38:21;;;;;;;5.55;5.07;;;;;;;15.34;100.00;101475.78;6085357;23;20253;-74
2022/09/19 11:41:28;;;;;;;5.38;4.97;;;;;;;15.55;100.00;101470.13;6062511;23;20014;-74
2022/09/19 11:44:09;;;;;;;5.47;5.10;;;;;;;15.52;100.00;101389.19;6060715;23;20087;-75
2022/09/19 11:47:02;;;;;;;7.85;7.13;;;;;;;16.52;100.00;101477.38;6096707;23;20033;-76
2022/09/19 11:49:47;;;;;;;7.65;7.05;;;;;;;16.63;100.00;101469.56;6052944;23;20539;-74
2022/09/19 11:52:51;;;;;;;5.65;5.28;;;;;;;16.93;100.00;101471.16;6123779;23;20005;-75
2022/09/19 11:55:54;;;;;;;5.68;5.18;;;;;;;16.89;100.00;101453.75;6068812;23;20014;-76
2022/09/19 11:58:51;;;;;;;5.28;5.03;;;;;;;16.99;100.00;101388.56;6084511;23;20010;-75
2022/09/19 12:01:26;;;;;;;5.50;5.10;;;;;;;17.55;91.29;101451.91;6085998;23;20105;-76
2022/09/19 12:04:25;;;;;;;5.38;5.18;;;;;;;17.66;91.52;101454.69;6094077;23;20352;-75
2022/09/19 12:07:03;;;;;;;5.40;4.97;;;;;;;17.84;93.92;101459.66;6035120;23;20033;-77
2022/09/19 12:09:51;;;;;;;7.15;6.68;;;;;;;17.64;92.18;101461.91;6103965;23;20086;-75